Log in

NYSEARCA:VXFVanguard Extended Market ETF Institutional Ownership

$120.78
+1.47 (+1.23 %)
(As of 07/10/2020 04:00 PM ET)
Add
Today's Range
$118.70
Now: $120.78
$120.85
50-Day Range
$109.69
MA: $116.77
$122.75
52-Week Range
$74.19
Now: $120.78
$133.06
Volume270,200 shs
Average Volume512,339 shs
Market Capitalization$8.98 billion
P/E RatioN/A
Dividend Yield1.34%
BetaN/A

Institutional Ownership

Institutional Ownership Changes (13F Filings) for Vanguard Extended Market ETF (NYSEARCA:VXF)

 

Institutional Buying and Selling by Quarter


Vanguard Extended Market ETF (NYSEARCA VXF) Institutional Buying and Selling

Reporting DateHedge FundShares HeldMarket Value% of PortfolioQuarterly Change in SharesOwnership in Company
7/10/2020Whittier Trust Co. of Nevada Inc.5,389$0.64M0.0%-15.1%0.007%
7/10/2020Whittier Trust Co.2,080$0.25M0.0%-18.0%0.003%
7/10/2020Patriot Financial Group Insurance Agency LLC505$60K0.0%-14.3%0.001%
7/10/2020Acorn Financial Advisory Services Inc. ADV12,374$1.47M1.0%+1.2%0.017%
7/9/2020Carroll Financial Associates Inc.19,991$2.37M0.2%-13.9%0.027%
7/9/2020Legacy Private Trust Co.13,891$1.64M0.2%-3.7%0.019%
7/9/2020Starfire Investment Advisers Inc.14,925$1.77M0.8%+3.3%0.020%
7/9/2020ARQ Wealth Advisors LLC13,410$1.59M1.5%+94.1%0.018%
7/8/2020Global Trust Asset Management LLC2,800$0.33M0.2%N/A0.004%
7/8/2020HBW Advisory Services LLC5,339$0.63M0.3%N/A0.007%
7/8/2020Envestnet Asset Management Inc.4,166,764$493.10M0.5%+0.1%5.614%
7/8/2020Foundations Investment Advisors LLC570,848$67.94M6.0%N/A0.769%
7/8/2020Chesley Taft & Associates LLC1,705$0.20M0.0%N/A0.002%
7/8/2020FC Advisory LLC130,041$15.39M9.2%+0.9%0.175%
7/8/2020Clarius Group LLC7,652$0.91M0.1%N/A0.010%
7/7/2020Diversified Trust Co334,516$39.59M2.0%+3.6%0.451%
7/7/2020First PREMIER Bank270$32K0.0%N/A0.000%
7/6/2020Boston Standard Wealth Management LLC20,025$2.37M1.1%+8.3%0.027%
7/1/2020Park National Corp OH4,400$0.52M0.0%N/A0.006%
6/16/2020Royal Bank of Canada655,530$59.35M0.0%+4.8%0.881%
6/10/2020Coastline Trust Co41,110$3.72M0.7%+1.9%0.055%
5/28/2020CVA Family Office LLC690$62K0.1%N/A0.001%
5/27/2020Coldstream Capital Management Inc.450,773$40.81M4.5%+5.7%0.616%
5/26/2020Morgan Stanley1,992,788$180.43M0.0%+58.1%2.722%
5/26/2020UMB Bank N A MO7,419$0.67M0.0%-2.6%0.010%
5/26/2020Verus Capital Partners LLC1,077$98K0.0%+38.6%0.001%
5/23/2020The Manufacturers Life Insurance Company76,853$6.96M0.0%+74.1%0.101%
5/21/2020HighTower Advisors LLC175,124$15.88M0.1%-14.6%0.238%
5/19/2020Perennial Advisors LLC1,951$0.19M0.2%N/A0.003%
5/18/2020EP Wealth Advisors LLC47,399$4.29M0.2%-12.7%0.066%
5/18/2020Balentine LLC15,375$1.39M0.1%N/A0.021%
5/18/2020Colony Group LLC389,403$35.26M1.1%+11.1%0.539%
5/18/2020Advisor Group Holdings Inc.1,091,975$93.35M0.4%N/A1.510%
5/16/2020ARGI Investment Services LLC34,943$3.16M0.2%+13.6%0.048%
5/15/2020Ameritas Investment Company LLC21,219$1.92M0.3%-3.9%0.029%
5/15/2020Beacon Pointe Advisors LLC98,705$8.94M1.4%N/A0.137%
5/15/2020Dowling & Yahnke LLC4,861$0.44M0.0%-24.3%0.007%
5/15/2020Meeder Asset Management Inc.715$65K0.0%N/A0.001%
5/15/2020Jane Street Group LLC43,962$3.98M0.0%N/A0.061%
5/15/2020Morgan Stanley1,992,788$180.43M0.0%+58.1%2.756%
5/15/2020Procyon Private Wealth Partners LLC17,756$1.61M1.1%-18.7%0.025%
5/15/2020United Capital Financial Advisers LLC39,467$3.57M0.0%-9.4%0.055%
5/15/2020Wilshire Associates Inc39,290$3.56M3.9%+12.9%0.054%
5/15/2020London Co. of Virginia2,082$0.19M0.0%N/A0.003%
5/15/2020Twin Focus Capital Partners LLC26,902$2.44M1.1%-5.6%0.037%
5/15/2020Thrivent Financial for Lutherans206,513$18.70M0.1%+29.1%0.286%
5/14/2020Wells Fargo & Company MN787,078$71.26M0.0%+29.4%1.089%
5/14/2020First National Bank of South Miami38,655$3.50M4.4%-5.9%0.053%
5/14/2020Southern Wealth Management LLP16,288$1.48M0.3%+70.9%0.023%
5/14/2020Aspire Private Capital LLC805$73K0.0%-21.8%0.001%
5/14/2020Deutsche Bank AG20,205$1.83M0.0%+35.6%0.028%
5/14/2020Baird Financial Group Inc.19,237$1.74M0.0%+64.7%0.027%
5/14/2020M&T Bank Corp9,197$0.83M0.0%N/A0.013%
5/14/2020MML Investors Services LLC34,857$3.16M0.1%+8.8%0.048%
5/14/2020Wintrust Investments LLC12,751$1.15M0.2%-5.3%0.018%
5/13/2020Bank of Hawaii12,379$1.12M0.1%-48.2%0.017%
5/13/2020King Luther Capital Management Corp19,183$1.74M0.0%+4.3%0.027%
5/13/2020Proequities Inc.9,378$0.85M0.1%-6.5%0.012%
5/13/2020Horizon Kinetics Asset Management LLC6,433$0.58M0.0%-66.1%0.008%
5/13/2020Penn Capital Management Co. Inc.10,255$0.93M0.2%-47.5%0.013%
5/13/2020ARQ Wealth Advisors LLC6,910$0.63M0.7%N/A0.009%
5/13/2020Oak Ridge Investments LLC6,812$0.62M0.1%-79.5%0.009%
5/13/2020Pinnacle Associates Ltd.9,410$0.85M0.0%-13.4%0.012%
5/13/2020US Bancorp DE738,056$66.82M0.7%+16.0%0.942%
5/12/2020Atlanta Capital Management Co. L L C3,550$0.32M0.0%N/A0.005%
5/12/2020Sontag Advisory LLC255,115$23.10M1.0%+1,162.3%0.325%
5/12/2020Private Advisor Group LLC171,034$15.49M0.3%-7.1%0.218%
5/12/2020Oxford Financial Group Ltd.42,877$3.88M0.8%-0.4%0.055%
5/12/2020Summit Wealth Group LLC39,743$3.60M3.6%+9.4%0.051%
5/12/2020Flagship Harbor Advisors LLC2,177$0.20M0.0%-8.4%0.003%
5/12/2020Citigroup Inc.135,526$12.27M0.0%+0.7%0.173%
5/12/2020Glassman Wealth Services1,953$0.18M0.1%+17.4%0.002%
5/12/2020FCG Advisors LLC331,542$30.02M8.6%+18.5%0.424%
5/12/2020JPMorgan Chase & Co.49,211$4.46M0.0%-6.4%0.063%
5/12/2020Coyle Financial Counsel LLC14,099$1.28M1.6%-1.2%0.018%
5/12/2020Personal Capital Advisors Corp34,132$2.95M0.0%-43.8%0.044%
5/11/2020Commonwealth Equity Services LLC149,972$13.58M0.1%+4.4%0.192%
5/11/2020Mid Atlantic Financial Management Inc. ADV4,682$0.42M0.0%+20.4%0.006%
5/11/2020GW&K Investment Management LLC1,468$0.13M0.0%+344.8%0.002%
5/11/2020Boston Family Office LLC16,884$1.53M0.2%-0.7%0.022%
5/11/2020Roundview Capital LLC13,854$1.25M0.3%+81.7%0.019%
5/11/2020Blair William & Co. IL66,806$6.05M0.0%-3.7%0.093%
5/11/2020Fiduciary Group LLC89,366$8.09M1.6%-6.7%0.125%
5/11/2020Argent Trust Co10,119$0.92M0.1%-24.7%0.014%
5/9/2020National Asset Management Inc.12,175$1.10M0.1%+3.4%0.017%
5/8/2020Northwestern Mutual Wealth Management Co.141,694$12.83M0.0%+4.0%0.198%
5/8/2020DiMeo Schneider & Associates L.L.C.5,221$0.47M0.3%N/A0.007%
5/8/202020 20 Capital Management Inc.3,455$0.36M0.2%-11.2%0.005%
5/8/2020New England Private Wealth Advisors LLC123,311$11.16M3.8%-13.1%0.172%
5/8/2020Bank of The West13,050$1.18M0.2%-2.0%0.018%
5/8/2020Pinnacle Wealth Management Advisory Group LLC9,360$0.85M0.4%-12.4%0.013%
5/8/2020PNC Financial Services Group Inc.41,489$3.76M0.0%-1.4%0.058%
5/8/2020Blue Chip Partners Inc.6,724$0.61M0.2%-1.9%0.009%
5/8/2020Cambridge Investment Research Advisors Inc.605,009$54.78M0.5%-6.5%0.845%
5/8/2020First Allied Advisory Services Inc.4,656$0.42M0.0%-18.2%0.007%
5/8/2020Cetera Investment Advisers11,311$1.02M0.1%+546.0%0.016%
5/8/2020Cetera Advisors LLC15,246$1.38M0.1%-27.4%0.021%
5/8/2020Cetera Advisor Networks LLC8,081$0.73M0.0%-1.5%0.011%
5/8/2020Oppenheimer & Co. Inc.20,060$1.82M0.1%-4.1%0.028%
5/7/2020Trellis Advisors LLC2,489$0.23M0.2%+6.4%0.003%
(Data available from 1/1/2016 forward)
This page was last updated on 7/12/2020 by MarketBeat.com Staff

Enter your email address below to receive a concise daily summary of analysts' upgrades, downgrades and new coverage with MarketBeat.com's FREE daily email newsletter.